Terminal Aerodrome Forecast
Issued by NWS Jackson, MS

Home | Current Version | Previous Version | Text Only | Print | Product List | Glossary On
Versions: 1 2 3 4 5 6 7 8 9 10 11 12 13 14
000
FTUS44 KMEG 220525
TAFTUP
TAF
KTUP 220525Z 2206/2306 11006KT P6SM VCSH SCT070
     FM221400 14012G20KT 6SM -SHRA VCTS BKN025CB OVC080
     FM222100 16015G25KT 5SM -TSRA BR SCT015 BKN025CB
     FM230100 22006KT 5SM BR VCSH OVC015=

USA.gov is the U.S. government's official web portal to all federal, state and local government web resources and services.